EDW244Y LSZH-LEPA
Flight info
| Callsign | EDW244Y |
|---|---|
| Flight time | 1h 30m |
| Altitude | 41000 |
| Route | VEBIT T50 ROTOS Z669 ULMES DCT VADAR DCT GEVEA DCT INCUS DCT BALSI DCT RETNO DCT TUPOX DCT MTG DCT DIVKO DCT VATIR DCT PIVUS DCT BODEQ DCT VERSO L129 LUNIK |
| Aircraft | A359/H-SABDE2E3GHIJ2J3J4J5M1P2RWXYZ/LB1D1 |
Departure
| Time | 2026-05-04 10:41 |
|---|---|
| Airport | Zürich Airport (LSZH) |
Arrival
| Time | 2026-05-04 12:11 |
|---|---|
| Airport | Palma de Mallorca Airport (LEPA) |
| Time | Latitude | Longitude | Altitude | Speed | Heading |
|---|---|---|---|---|---|
| 2026-05-04 10:04 | 47.44711 | 8.56222 | 1403 ft | 0 kts | 64° |
| 2026-05-04 10:28 | 47.44710 | 8.56218 | 1403 ft | 3 kts | 65° |
| 2026-05-04 10:28 | 47.44699 | 8.56182 | 1413 ft | 4 kts | 69° |
| 2026-05-04 10:29 | 47.44688 | 8.56147 | 1413 ft | 4 kts | 43° |
| 2026-05-04 10:29 | 47.44669 | 8.56132 | 1413 ft | 4 kts | 7° |
| 2026-05-04 10:29 | 47.44644 | 8.56138 | 1412 ft | 4 kts | 332° |
| 2026-05-04 10:29 | 47.44629 | 8.56150 | 1409 ft | 0 kts | 335° |
| 2026-05-04 10:33 | 47.44629 | 8.56149 | 1409 ft | 1 kts | 334° |
| 2026-05-04 10:33 | 47.44663 | 8.56127 | 1405 ft | 9 kts | 335° |
| 2026-05-04 10:34 | 47.44723 | 8.56086 | 1411 ft | 10 kts | 335° |
| 2026-05-04 10:34 | 47.44796 | 8.56037 | 1411 ft | 13 kts | 334° |
| 2026-05-04 10:34 | 47.44879 | 8.55977 | 1415 ft | 14 kts | 334° |
| 2026-05-04 10:34 | 47.44942 | 8.55907 | 1415 ft | 8 kts | 290° |
| 2026-05-04 10:35 | 47.44955 | 8.55802 | 1414 ft | 12 kts | 285° |
| 2026-05-04 10:35 | 47.44996 | 8.55719 | 1412 ft | 10 kts | 307° |
| 2026-05-04 10:35 | 47.45065 | 8.55607 | 1416 ft | 19 kts | 329° |
| 2026-05-04 10:35 | 47.45193 | 8.55512 | 1414 ft | 23 kts | 335° |
| 2026-05-04 10:36 | 47.45348 | 8.55410 | 1416 ft | 26 kts | 335° |
| 2026-05-04 10:36 | 47.45525 | 8.55286 | 1412 ft | 30 kts | 335° |
| 2026-05-04 10:36 | 47.45645 | 8.55211 | 1413 ft | 9 kts | 356° |
| 2026-05-04 10:36 | 47.45674 | 8.55243 | 1413 ft | 7 kts | 64° |
| 2026-05-04 10:37 | 47.45674 | 8.55316 | 1411 ft | 8 kts | 99° |
| 2026-05-04 10:37 | 47.45668 | 8.55398 | 1408 ft | 9 kts | 93° |
| 2026-05-04 10:37 | 47.45664 | 8.55507 | 1411 ft | 12 kts | 95° |
| 2026-05-04 10:37 | 47.45654 | 8.55653 | 1411 ft | 16 kts | 96° |
| 2026-05-04 10:39 | 47.45567 | 8.56882 | 1427 ft | 19 kts | 95° |
| 2026-05-04 10:39 | 47.45588 | 8.57004 | 1429 ft | 10 kts | 36° |
| 2026-05-04 10:39 | 47.45643 | 8.57008 | 1431 ft | 8 kts | 332° |
| 2026-05-04 10:40 | 47.45666 | 8.56933 | 1430 ft | 10 kts | 277° |
| 2026-05-04 10:40 | 47.45677 | 8.56778 | 1426 ft | 32 kts | 276° |
| 2026-05-04 10:40 | 47.45732 | 8.56018 | 1420 ft | 114 kts | 276° |
| 2026-05-04 10:40 | 47.45845 | 8.54500 | 1475 ft | 172 kts | 276° |
| 2026-05-04 10:41 | 47.45949 | 8.52787 | 2431 ft | 163 kts | 277° |
| 2026-05-04 10:41 | 47.46035 | 8.51124 | 3461 ft | 164 kts | 279° |
| 2026-05-04 10:41 | 47.46141 | 8.49419 | 4032 ft | 173 kts | 275° |
| 2026-05-04 10:41 | 47.45770 | 8.47712 | 4579 ft | 182 kts | 232° |
| 2026-05-04 10:42 | 47.44850 | 8.46261 | 4891 ft | 205 kts | 224° |
| 2026-05-04 10:42 | 47.43838 | 8.44565 | 5229 ft | 234 kts | 230° |
| 2026-05-04 10:42 | 47.42800 | 8.42559 | 5649 ft | 258 kts | 232° |
| 2026-05-04 10:42 | 47.41718 | 8.40350 | 6358 ft | 271 kts | 232° |
| 2026-05-04 10:43 | 47.40626 | 8.38071 | 7321 ft | 272 kts | 233° |
| 2026-05-04 10:44 | 47.33764 | 8.19979 | 13307 ft | 321 kts | 242° |
| 2026-05-04 10:45 | 47.32722 | 8.17047 | 14152 ft | 326 kts | 241° |
| 2026-05-04 10:45 | 47.31663 | 8.14075 | 14878 ft | 331 kts | 241° |
| 2026-05-04 10:45 | 47.30585 | 8.11037 | 15651 ft | 336 kts | 241° |
| 2026-05-04 10:45 | 47.29496 | 8.07975 | 16409 ft | 341 kts | 240° |
| 2026-05-04 10:46 | 47.28384 | 8.04857 | 17177 ft | 346 kts | 240° |
| 2026-05-04 10:46 | 47.27264 | 8.01704 | 17912 ft | 351 kts | 241° |
| 2026-05-04 10:46 | 47.26206 | 7.98421 | 18601 ft | 357 kts | 243° |
| 2026-05-04 10:46 | 47.25225 | 7.95059 | 19321 ft | 360 kts | 245° |
| 2026-05-04 10:47 | 47.24286 | 7.91673 | 20058 ft | 364 kts | 245° |
| 2026-05-04 10:47 | 47.23326 | 7.88154 | 20819 ft | 367 kts | 246° |
| 2026-05-04 10:47 | 47.22373 | 7.84662 | 21557 ft | 370 kts | 245° |
| 2026-05-04 10:47 | 47.21413 | 7.81175 | 22257 ft | 374 kts | 245° |
| 2026-05-04 10:49 | 47.11364 | 7.58280 | 26680 ft | 392 kts | 230° |
| 2026-05-04 10:49 | 47.09643 | 7.55145 | 27263 ft | 395 kts | 230° |
| 2026-05-04 10:50 | 47.07920 | 7.51998 | 27850 ft | 398 kts | 230° |
| 2026-05-04 10:51 | 46.95545 | 7.29343 | 31469 ft | 415 kts | 230° |
| 2026-05-04 10:52 | 46.93729 | 7.26029 | 31849 ft | 418 kts | 230° |
| 2026-05-04 10:52 | 46.91906 | 7.22702 | 32240 ft | 421 kts | 230° |
| 2026-05-04 10:52 | 46.90067 | 7.19349 | 32694 ft | 423 kts | 230° |
| 2026-05-04 10:54 | 46.76913 | 6.95497 | 35061 ft | 437 kts | 231° |
| 2026-05-04 10:54 | 46.75006 | 6.92055 | 35413 ft | 437 kts | 231° |
| 2026-05-04 10:56 | 46.61439 | 6.68315 | 37979 ft | 438 kts | 226° |
| 2026-05-04 10:56 | 46.59324 | 6.65122 | 38305 ft | 438 kts | 226° |
| 2026-05-04 10:56 | 46.57198 | 6.61938 | 38574 ft | 438 kts | 226° |
| 2026-05-04 10:57 | 46.55085 | 6.58753 | 38808 ft | 439 kts | 226° |
| 2026-05-04 10:57 | 46.52975 | 6.55545 | 39039 ft | 439 kts | 227° |
| 2026-05-04 10:57 | 46.50872 | 6.52322 | 39270 ft | 439 kts | 227° |
| 2026-05-04 10:57 | 46.48778 | 6.49098 | 39475 ft | 439 kts | 227° |
| 2026-05-04 10:58 | 46.46687 | 6.45872 | 39676 ft | 440 kts | 227° |
| 2026-05-04 10:58 | 46.44593 | 6.42641 | 39889 ft | 439 kts | 227° |
| 2026-05-04 10:58 | 46.42506 | 6.39426 | 40141 ft | 437 kts | 227° |
| 2026-05-04 10:58 | 46.40416 | 6.36210 | 40322 ft | 438 kts | 227° |
| 2026-05-04 10:59 | 46.38326 | 6.32999 | 40451 ft | 439 kts | 227° |
| 2026-05-04 10:59 | 46.34111 | 6.26539 | 40719 ft | 442 kts | 227° |
| 2026-05-04 10:59 | 46.32003 | 6.23314 | 40878 ft | 442 kts | 227° |
| 2026-05-04 11:00 | 46.29865 | 6.20119 | 41041 ft | 442 kts | 224° |
| 2026-05-04 11:01 | 46.09411 | 6.09534 | 41069 ft | 462 kts | 191° |
| 2026-05-04 11:02 | 46.06212 | 6.08878 | 41071 ft | 462 kts | 191° |
| 2026-05-04 11:05 | 45.58635 | 5.98466 | 41077 ft | 459 kts | 192° |
| 2026-05-04 11:06 | 45.52291 | 5.97076 | 41073 ft | 457 kts | 192° |
| 2026-05-04 11:06 | 45.46005 | 5.95683 | 41061 ft | 457 kts | 193° |
| 2026-05-04 11:10 | 45.02780 | 5.82103 | 41040 ft | 455 kts | 195° |
| 2026-05-04 11:12 | 44.77950 | 5.74479 | 41062 ft | 458 kts | 195° |
| 2026-05-04 11:12 | 44.71715 | 5.72585 | 41059 ft | 458 kts | 195° |
| 2026-05-04 11:13 | 44.65481 | 5.70683 | 41086 ft | 458 kts | 195° |
| 2026-05-04 11:13 | 44.59254 | 5.68784 | 41079 ft | 457 kts | 195° |
| 2026-05-04 11:14 | 44.53037 | 5.66894 | 41072 ft | 457 kts | 195° |
| 2026-05-04 11:16 | 44.28696 | 5.57311 | 41067 ft | 452 kts | 204° |
| 2026-05-04 11:16 | 44.22843 | 5.54079 | 41063 ft | 452 kts | 205° |
| 2026-05-04 11:17 | 44.16995 | 5.50863 | 41064 ft | 452 kts | 205° |
| 2026-05-04 11:19 | 43.93574 | 5.38134 | 41038 ft | 452 kts | 205° |
| 2026-05-04 11:19 | 43.88703 | 5.35500 | 41028 ft | 452 kts | 205° |
| 2026-05-04 11:20 | 43.82851 | 5.32344 | 41032 ft | 451 kts | 204° |
| 2026-05-04 11:20 | 43.77007 | 5.29196 | 41020 ft | 450 kts | 204° |
| 2026-05-04 11:22 | 43.53692 | 5.16704 | 41020 ft | 449 kts | 205° |
| 2026-05-04 11:23 | 43.47868 | 5.13599 | 41021 ft | 449 kts | 205° |
| 2026-05-04 11:24 | 43.31416 | 5.01971 | 40996 ft | 443 kts | 217° |
| 2026-05-04 11:25 | 43.28881 | 4.99573 | 41015 ft | 443 kts | 217° |
| 2026-05-04 11:25 | 43.23786 | 4.94732 | 41030 ft | 443 kts | 217° |
| 2026-05-04 11:27 | 43.00732 | 4.73952 | 41004 ft | 442 kts | 214° |
| 2026-05-04 11:28 | 42.95396 | 4.69804 | 40999 ft | 442 kts | 214° |
| 2026-05-04 11:28 | 42.90030 | 4.65680 | 40996 ft | 442 kts | 214° |
| 2026-05-04 11:29 | 42.84664 | 4.61602 | 40999 ft | 441 kts | 214° |
| 2026-05-04 11:29 | 42.79295 | 4.57514 | 40998 ft | 442 kts | 214° |
| 2026-05-04 11:33 | 42.42023 | 4.29901 | 40983 ft | 440 kts | 212° |
| 2026-05-04 11:33 | 42.36658 | 4.25918 | 40976 ft | 440 kts | 212° |
| 2026-05-04 11:34 | 42.31297 | 4.21948 | 40967 ft | 439 kts | 212° |
| 2026-05-04 11:34 | 42.25937 | 4.17986 | 40982 ft | 438 kts | 212° |
| 2026-05-04 11:35 | 42.20583 | 4.14036 | 40979 ft | 438 kts | 212° |
| 2026-05-04 11:35 | 42.15237 | 4.10095 | 40976 ft | 438 kts | 212° |
| 2026-05-04 11:36 | 42.09929 | 4.06193 | 40970 ft | 437 kts | 212° |
| 2026-05-04 11:36 | 42.04586 | 4.02280 | 40977 ft | 437 kts | 212° |
| 2026-05-04 11:37 | 41.99252 | 3.98378 | 40978 ft | 436 kts | 212° |
| 2026-05-04 11:37 | 41.93855 | 3.94619 | 40973 ft | 439 kts | 207° |
| 2026-05-04 11:38 | 41.87944 | 3.92316 | 40966 ft | 446 kts | 197° |
| 2026-05-04 11:38 | 41.81817 | 3.90820 | 40970 ft | 448 kts | 195° |
| 2026-05-04 11:39 | 41.75667 | 3.89457 | 40972 ft | 448 kts | 195° |
| 2026-05-04 11:41 | 41.54140 | 3.84554 | 40984 ft | 449 kts | 195° |
| 2026-05-04 11:41 | 41.47991 | 3.83145 | 40972 ft | 449 kts | 195° |
| 2026-05-04 11:42 | 41.41882 | 3.81750 | 40644 ft | 446 kts | 195° |
| 2026-05-04 11:42 | 41.38792 | 3.81046 | 40410 ft | 443 kts | 195° |
| 2026-05-04 11:42 | 41.35764 | 3.80356 | 40169 ft | 442 kts | 195° |
| 2026-05-04 11:42 | 41.32741 | 3.79668 | 39739 ft | 439 kts | 195° |
| 2026-05-04 11:43 | 41.29766 | 3.78990 | 39101 ft | 439 kts | 195° |
| 2026-05-04 11:43 | 41.26723 | 3.78297 | 38438 ft | 438 kts | 196° |
| 2026-05-04 11:43 | 41.23723 | 3.77614 | 37715 ft | 436 kts | 195° |
| 2026-05-04 11:43 | 41.20778 | 3.76945 | 37058 ft | 433 kts | 195° |
| 2026-05-04 11:44 | 41.17814 | 3.76273 | 36423 ft | 431 kts | 195° |
| 2026-05-04 11:44 | 41.14901 | 3.75340 | 35782 ft | 422 kts | 204° |
| 2026-05-04 11:44 | 41.12200 | 3.74044 | 35274 ft | 415 kts | 205° |
| 2026-05-04 11:44 | 41.09519 | 3.72692 | 34799 ft | 409 kts | 206° |
| 2026-05-04 11:45 | 41.06880 | 3.71345 | 34285 ft | 405 kts | 206° |
| 2026-05-04 11:45 | 41.04268 | 3.70006 | 33798 ft | 400 kts | 206° |
| 2026-05-04 11:45 | 41.01689 | 3.68682 | 33301 ft | 395 kts | 206° |
| 2026-05-04 11:45 | 40.99141 | 3.67373 | 32794 ft | 390 kts | 206° |
| 2026-05-04 11:46 | 40.96626 | 3.66081 | 32343 ft | 385 kts | 206° |
| 2026-05-04 11:46 | 40.94146 | 3.64808 | 31882 ft | 381 kts | 206° |
| 2026-05-04 11:46 | 40.91687 | 3.63547 | 31430 ft | 377 kts | 206° |
| 2026-05-04 11:46 | 40.89254 | 3.62299 | 30974 ft | 373 kts | 206° |
| 2026-05-04 11:47 | 40.86846 | 3.61065 | 30528 ft | 369 kts | 206° |
| 2026-05-04 11:47 | 40.84467 | 3.59847 | 30075 ft | 366 kts | 206° |
| 2026-05-04 11:47 | 40.82106 | 3.58640 | 29583 ft | 362 kts | 206° |
| 2026-05-04 11:47 | 40.79772 | 3.57447 | 29144 ft | 357 kts | 206° |
| 2026-05-04 11:48 | 40.77478 | 3.56275 | 28703 ft | 352 kts | 206° |
| 2026-05-04 11:48 | 40.75203 | 3.55114 | 28294 ft | 348 kts | 206° |
| 2026-05-04 11:48 | 40.72951 | 3.53964 | 27859 ft | 346 kts | 206° |
| 2026-05-04 11:48 | 40.70706 | 3.52818 | 27424 ft | 346 kts | 206° |
| 2026-05-04 11:49 | 40.68469 | 3.51678 | 26993 ft | 345 kts | 206° |
| 2026-05-04 11:49 | 40.66230 | 3.50538 | 26559 ft | 344 kts | 205° |
| 2026-05-04 11:49 | 40.64000 | 3.49403 | 26134 ft | 343 kts | 205° |
| 2026-05-04 11:49 | 40.61771 | 3.48271 | 25702 ft | 343 kts | 205° |
| 2026-05-04 11:50 | 40.59548 | 3.47142 | 25234 ft | 342 kts | 205° |
| 2026-05-04 11:50 | 40.57330 | 3.46016 | 24811 ft | 341 kts | 205° |
| 2026-05-04 11:50 | 40.55115 | 3.44892 | 24366 ft | 340 kts | 205° |
| 2026-05-04 11:50 | 40.52908 | 3.43774 | 23914 ft | 340 kts | 205° |
| 2026-05-04 11:51 | 40.50706 | 3.42659 | 23469 ft | 339 kts | 205° |
| 2026-05-04 11:51 | 40.48503 | 3.41544 | 22962 ft | 338 kts | 205° |
| 2026-05-04 11:51 | 40.46314 | 3.40439 | 22500 ft | 337 kts | 205° |
| 2026-05-04 11:51 | 40.44066 | 3.39549 | 22021 ft | 339 kts | 194° |
| 2026-05-04 11:52 | 40.41696 | 3.39344 | 21545 ft | 343 kts | 184° |
| 2026-05-04 11:52 | 40.39304 | 3.39462 | 21072 ft | 343 kts | 182° |
| 2026-05-04 11:52 | 40.36930 | 3.39615 | 20604 ft | 342 kts | 182° |
| 2026-05-04 11:52 | 40.34554 | 3.39765 | 20135 ft | 341 kts | 182° |
| 2026-05-04 11:53 | 40.32184 | 3.39908 | 19654 ft | 340 kts | 182° |
| 2026-05-04 11:53 | 40.29821 | 3.40046 | 19184 ft | 340 kts | 182° |
| 2026-05-04 11:53 | 40.27454 | 3.40183 | 18713 ft | 340 kts | 182° |
| 2026-05-04 11:53 | 40.25120 | 3.40317 | 18232 ft | 341 kts | 182° |
| 2026-05-04 11:55 | 40.08891 | 3.41244 | 15510 ft | 310 kts | 181° |
| 2026-05-04 11:55 | 40.06782 | 3.41366 | 15355 ft | 299 kts | 181° |
| 2026-05-04 11:56 | 40.04715 | 3.41482 | 15023 ft | 296 kts | 181° |
| 2026-05-04 11:56 | 40.02658 | 3.41595 | 14674 ft | 295 kts | 181° |
| 2026-05-04 11:56 | 40.00610 | 3.41712 | 14320 ft | 294 kts | 181° |
| 2026-05-04 11:56 | 39.98573 | 3.41825 | 13974 ft | 293 kts | 181° |
| 2026-05-04 11:57 | 39.96541 | 3.41938 | 13604 ft | 291 kts | 181° |
| 2026-05-04 11:57 | 39.94522 | 3.42050 | 13246 ft | 289 kts | 181° |
| 2026-05-04 11:57 | 39.92525 | 3.42162 | 12902 ft | 286 kts | 181° |
| 2026-05-04 11:57 | 39.90541 | 3.42274 | 12561 ft | 284 kts | 181° |
| 2026-05-04 11:58 | 39.88573 | 3.42384 | 12216 ft | 282 kts | 181° |
| 2026-05-04 11:58 | 39.86621 | 3.42493 | 11875 ft | 281 kts | 180° |
| 2026-05-04 11:58 | 39.84675 | 3.42602 | 11550 ft | 279 kts | 180° |
| 2026-05-04 11:58 | 39.82741 | 3.42711 | 11211 ft | 277 kts | 180° |
| 2026-05-04 11:59 | 39.80820 | 3.42818 | 10877 ft | 275 kts | 180° |
| 2026-05-04 11:59 | 39.78910 | 3.42925 | 10547 ft | 274 kts | 180° |
| 2026-05-04 11:59 | 39.77015 | 3.43031 | 10214 ft | 273 kts | 180° |
| 2026-05-04 11:59 | 39.75123 | 3.43137 | 9877 ft | 271 kts | 181° |
| 2026-05-04 12:00 | 39.73241 | 3.43126 | 9527 ft | 270 kts | 189° |
| 2026-05-04 12:00 | 39.71481 | 3.42374 | 9184 ft | 266 kts | 212° |
| 2026-05-04 12:00 | 39.70148 | 3.40748 | 8876 ft | 265 kts | 235° |
| 2026-05-04 12:00 | 39.69468 | 3.38536 | 8550 ft | 267 kts | 258° |
| 2026-05-04 12:01 | 39.69561 | 3.36128 | 8227 ft | 272 kts | 281° |
| 2026-05-04 12:01 | 39.69963 | 3.33735 | 7889 ft | 270 kts | 274° |
| 2026-05-04 12:02 | 39.70531 | 3.19443 | 5911 ft | 260 kts | 270° |
| 2026-05-04 12:03 | 39.70604 | 3.17108 | 5604 ft | 259 kts | 269° |
| 2026-05-04 12:03 | 39.70675 | 3.14821 | 5404 ft | 248 kts | 269° |
| 2026-05-04 12:03 | 39.70742 | 3.12660 | 5251 ft | 238 kts | 270° |
| 2026-05-04 12:03 | 39.70797 | 3.10515 | 4978 ft | 232 kts | 268° |
| 2026-05-04 12:04 | 39.70566 | 3.08503 | 4564 ft | 220 kts | 249° |
| 2026-05-04 12:04 | 39.69935 | 3.06752 | 4180 ft | 210 kts | 239° |
| 2026-05-04 12:04 | 39.69197 | 3.05165 | 3875 ft | 199 kts | 237° |
| 2026-05-04 12:04 | 39.68482 | 3.03660 | 3778 ft | 197 kts | 237° |
| 2026-05-04 12:05 | 39.67766 | 3.02149 | 3671 ft | 194 kts | 238° |
| 2026-05-04 12:05 | 39.67062 | 3.00656 | 3596 ft | 195 kts | 238° |
| 2026-05-04 12:05 | 39.66360 | 2.99159 | 3512 ft | 193 kts | 238° |
| 2026-05-04 12:05 | 39.65670 | 2.97692 | 3426 ft | 187 kts | 240° |
| 2026-05-04 12:06 | 39.65008 | 2.96274 | 3383 ft | 179 kts | 239° |
| 2026-05-04 12:06 | 39.64379 | 2.94935 | 3310 ft | 169 kts | 237° |
| 2026-05-04 12:06 | 39.63770 | 2.93640 | 3126 ft | 167 kts | 238° |
| 2026-05-04 12:06 | 39.63362 | 2.92773 | 2971 ft | 167 kts | 239° |
| 2026-05-04 12:07 | 39.62760 | 2.91490 | 2744 ft | 169 kts | 238° |
| 2026-05-04 12:07 | 39.62140 | 2.90175 | 2506 ft | 167 kts | 238° |
| 2026-05-04 12:07 | 39.61555 | 2.88929 | 2281 ft | 162 kts | 237° |
| 2026-05-04 12:07 | 39.60982 | 2.87714 | 2067 ft | 153 kts | 237° |
| 2026-05-04 12:08 | 39.60447 | 2.86576 | 1863 ft | 142 kts | 236° |
| 2026-05-04 12:08 | 39.59946 | 2.85516 | 1694 ft | 134 kts | 237° |
| 2026-05-04 12:08 | 39.59471 | 2.84504 | 1499 ft | 129 kts | 237° |
| 2026-05-04 12:08 | 39.59016 | 2.83539 | 1357 ft | 123 kts | 238° |
| 2026-05-04 12:09 | 39.58573 | 2.82598 | 1184 ft | 123 kts | 237° |
| 2026-05-04 12:09 | 39.58127 | 2.81652 | 1023 ft | 122 kts | 237° |
| 2026-05-04 12:09 | 39.57693 | 2.80728 | 831 ft | 118 kts | 237° |
| 2026-05-04 12:09 | 39.57264 | 2.79828 | 705 ft | 119 kts | 236° |
| 2026-05-04 12:10 | 39.56838 | 2.78899 | 579 ft | 121 kts | 237° |
| 2026-05-04 12:10 | 39.56403 | 2.77982 | 385 ft | 119 kts | 235° |
| 2026-05-04 12:10 | 39.55952 | 2.77050 | 254 ft | 124 kts | 237° |
| 2026-05-04 12:10 | 39.55513 | 2.76104 | 67 ft | 121 kts | 237° |
| 2026-05-04 12:11 | 39.55098 | 2.75228 | 42 ft | 101 kts | 238° |
| 2026-05-04 12:11 | 39.54807 | 2.74613 | 44 ft | 59 kts | 238° |
| 2026-05-04 12:11 | 39.54667 | 2.74316 | 45 ft | 22 kts | 238° |
| 2026-05-04 12:11 | 39.54590 | 2.74149 | 45 ft | 21 kts | 243° |
| 2026-05-04 12:12 | 39.54553 | 2.73969 | 45 ft | 21 kts | 266° |
| 2026-05-04 12:12 | 39.54547 | 2.73780 | 44 ft | 13 kts | 268° |
| 2026-05-04 12:12 | 39.54580 | 2.73732 | 45 ft | 8 kts | 350° |
| 2026-05-04 12:12 | 39.54627 | 2.73782 | 45 ft | 12 kts | 56° |
| 2026-05-04 12:13 | 39.54678 | 2.73898 | 44 ft | 18 kts | 57° |
| 2026-05-04 12:14 | 39.54852 | 2.73850 | 44 ft | 0 kts | 265° |
| 2026-05-04 12:15 | 39.54852 | 2.73849 | 44 ft | 0 kts | 265° |